Northmore Heights, Illinois
Current Conditions -  °F | °C
As of 11:15 AM on Friday 31 Oct 2014 (Local Time) from K1H2 Reporting Station
Broken Clouds Broken Clouds  
Wind Chill: 31°   Ceiling: 3500
Heat Index: 41°   Visibility: 10mi
Dew Point: 25°   Wind: 22mph
Humidity: 54%   Direction: 330°NNW
Pressure: 30.18"   Gusts: 30mph
Location:  39.1183°N, 88.6059°W
Report Text: K1H2 311615Z AUTO 33019G26KT 10SM BKN035 05/M04 A3018 RMK AO2 T00481038
Loading
Personal Weather Stations






























Interactive Weather Map
Tropical Storm Tracking
New forecast layout! Learn more

10-Day Weather Forecast

Advertisements
Track Severe Weather on mobile